Dripping Springs, TX (78620)

4:51 PM CST on February 07, 2016 (GMT -0600)
APRSWXNET | | Change Station
CLOSE
Current Station
Personal Weather Station
Location: Dripping Springs, TX
Elevation: 1282 ft
Nearby Weather Stations
Active Advisory: Fire Weather Watch

Elev 1282 ft 30.23 °N, 98.17 °W | Updated 26 minutes ago

Clear
Clear
68 °F
Feels Like 68 °F
N
0
Wind Variable Wind from East
Gusts 6.0 mph

Today
High -- | Low -- °F
--% Chance of Precip.
Yesterday
High -- | Low -- °F
Precip. -- in
Pressure 30.10 in
Visibility 10.0 miles
Clouds Clear
Dew Point 35 °F
Humidity 30%
Rainfall in
Snow Depth Not available.
7:19 AM 6:14 PM
Waning Crescent, 1% visible
METAR KRYW 072235Z AUTO 22004KT 10SM CLR 20/M03 A3010 RMK AO2 T01981027
Pressure 30.10 in
Visibility 10.0 miles
Clouds Clear
Dew Point 35 °F
Humidity 30%
Rainfall in
Snow Depth Not available.
7:19 AM 6:14 PM
Waning Crescent, 1% visible
METAR KRYW 072235Z AUTO 22004KT 10SM CLR 20/M03 A3010 RMK AO2 T01981027

10-Day Weather Forecast

Almanac

Astronomy

Feb. 07, 2016 Rise Set
Actual Time
Civil Twilight
Nautical Twilight
Astronomical Twilight
Moon
Length of Visible Light
Length of Day
Tomorrow will be .
, % of the Moon is Illuminated

Today's Extremes

State Highs State Lows

Community

WunderPhotos

Upload Photos

1,891,323 photos uploaded!

WunderBlog® & News

Nearby

Air Quality

  Air Quality AQ Index Pollutant
Not available.

Snow Depth

Station Depth Elevation

Earthquake Activity

City Distance Mag. Time & Date
Minimum magnitude displayed is 2.5.

Coastal Water Temperatures

Place Temperature

Stations

Nearby Weather Stations

Station Location Temp. Windchill Dew Point Humidity Wind Precip. Elev Updated Type
                   

Watches & Warnings

Fire Weather Watch
Issued: 3:26 PM CST Feb. 7, 2016 – National Weather Service

... Fire Weather Watch in effect Monday afternoon for gusty winds
and low relative humidity for fire weather zones
171... 172... 173... 190... 191... 192... 193... 194... 208... 209... 223
and 225...

The National Weather Service in Austin/San Antonio has issued a
Fire Weather Watch... which is in effect Monday afternoon.

* Affected area... fire weather zones 171... 172... 173... 190...
191... 192... 193... 194... 208... 209... 223 and 225.

* Wind... north to northwest at 15-30 mph.

* Humidity... minimum afternoon humidity falling to 15-20 percent.

* Thunderstorms... none.

* Highest threat... along and northeast of a line from Llano to
San Marcos to Hallettsville.

* Impacts... any fires that develop will likely spread rapidly.
Outdoor burning is not recommended.

Precautionary/preparedness actions...

A Fire Weather Watch is issued when critical fire weather
conditions are forecast to occur within the next 1 to 4 days.
Monitor the latest weather forecasts for possible red flag
warnings.